x

Boston 16 Nm East Of Boston, Ma (44013) Wave Buoy

9:50am - Fri 31st Oct 2014 All times are EDT. -4 hours from GMT.

  • Sig Wave height 2.3ft
  • Swell Direction
  • Peak Period 5s
  • Average Period 4s
  • Wind
    13mph, 16mph gusts
  • Sea Temp 54°f
  • Air Temp 50°f
  • Sea Pressure 1017.3mb
  • Boston 16 Nm East Of Boston, Ma
  • Boston 16 Nm East Of Boston, Ma

More Historic Weather Station data

Upgrade to MSW Pro to gain access to the past 30 days of data for over 8000 Wavebouys and Weather Stations around the globe.

Join Pro

Comparision Forecast

View Surf forecast
   
Fri 10/31 9:50am 2.5ft 5s 4s 13 16 mph 1017.3mb 54f 50f
8:50am 2.5ft 5s 4s 13 16 mph 1017.3mb 54f 51f
7:50am 2.5ft 5s 4s 13 16 mph 1016.9mb 54f 50f
6:50am 2.5ft 5s 4s 13 16 mph 1016.5mb 54f 49f
5:50am 2.5ft 5s 4s 16 18 mph 1016.1mb 54f 49f
4:50am 2.5ft 4s 4s 16 18 mph 1015.9mb 54f 49f
3:50am 2.5ft 4s 4s 18 22 mph 1015.6mb 54f 49f
2:50am 2ft 3s 3s 16 20 mph 1015.8mb 54f 50f
1:50am 1.6ft 3s 3s 16 18 mph 1015.6mb 54f 51f
12:50am 1.3ft 9s 3s 13 16 mph 1015.6mb 54f 51f
Thu 10/30 11:50pm 1.3ft 3s 3s 9 13 mph 1015.8mb 54f 52f
10:50pm 1.3ft 3s 3s 11 13 mph 1015.7mb 55f 52f
9:50pm 1.3ft 3s 3s 13 16 mph 1015.2mb 54f 52f
8:50pm 1ft 7s 3s 13 18 mph 1014.8mb 55f 53f
7:50pm 1ft 8s 3s 11
mph
1014.5mb 55f 54f
6:50pm 1ft 8s 3s 9 11 mph 1014.2mb 55f 54f
5:50pm 1ft 7s 4s 11 13 mph 1013.6mb 55f 55f
4:50pm 1ft 7s 4s 7 9 mph 1013.3mb 55f 55f
3:50pm 1ft 7s 4s 9
mph
1012.9mb 55f 55f
2:50pm 1ft 7s 3s 7
mph
1012.9mb 55f 55f
1:50pm 1ft 7s  -  7 9 mph 1013mb 55f 55f
12:50pm 1.3ft 3s 3s 7
mph
1013.3mb 55f 53f
11:50am 1ft 3s 3s 11
mph
1013.6mb 55f 53f
10:50am 1.3ft 3s 3s 11 13 mph 1013.9mb 54f 52f
9:50am 1.3ft 3s 3s 11 13 mph 1013.9mb 54f 51f
8:50am 1ft 2s 3s 13 18 mph 1013.7mb 54f 51f
7:50am 1ft 3s 3s 11 13 mph 1013.4mb 54f 50f
6:50am 1.3ft 3s 3s 9 11 mph 1013.2mb 54f 50f
5:50am 1.6ft 3s 3s 16 18 mph 1012.6mb 54f 51f
4:50am 1.6ft 3s 3s 16 18 mph 1011.8mb 55f 51f
3:50am 2ft 3s 3s 16 18 mph 1011.6mb 55f 52f
2:50am 2ft 3s 3s 16 20 mph 1011.7mb 55f 52f
1:50am 1.6ft 3s 3s 18 20 mph 1011.5mb 55f 53f
12:50am 1.3ft 2s 3s 18 20 mph 1011.4mb 55f 55f
Wed 10/29 11:50pm 1ft 5s 4s 11 16 mph 1011.2mb 55f 54f
10:50pm 1.3ft 3s 3s 9 11 mph 1011.2mb 55f 53f
9:50pm 1.6ft 3s 3s 11 13 mph 1011.4mb 55f 53f
8:50pm 1.3ft 6s 3s 13 18 mph 1010.7mb 55f 58f
7:50pm 1.3ft 5s 4s 7 11 mph 1010.3mb 55f 58f
6:50pm 1.3ft 5s 4s 7 11 mph 1010.4mb 55f 58f
5:50pm 1.3ft 5s 3s 11 13 mph 1009.4mb 55f 57f
4:50pm 1.3ft 5s 4s 18 20 mph 1007.7mb 56f 56f
3:50pm 1.3ft 4s 4s 7
mph
1007.7mb 56f 63f
2:50pm 1.3ft 5s  -  4 7 mph 1007.9mb 56f 62f
1:50pm 1.3ft 4s 4s 2
mph
1008.5mb 56f 61f
12:50pm 1.3ft 5s 4s 4
mph
1009.2mb 56f 62f
11:50am 1.3ft 4s 4s 4 7 mph 1010mb 55f 60f
10:50am 1.3ft 5s 4s  -  2 mph 1010.5mb 55f 59f
9:50am 1.3ft 5s 3s 2 4 mph 1011.2mb 55f 58f
8:50am 1.3ft 5s 3s 2 4 mph 1011.7mb 55f 55f
7:50am 1.3ft 5s 3s 11
mph
1011.6mb 55f 58f
6:50am 1.3ft 5s 4s 11 13 mph 1011.1mb 55f 58f
5:50am 1.3ft 5s 4s 4 7 mph 1011.3mb 55f 57f
4:50am 1.3ft 5s 4s 7
mph
1011.6mb 55f 57f
3:50am 1.3ft 5s 4s 7 9 mph 1012.1mb 55f 57f
2:50am 1.3ft 5s 4s 4
mph
1012.7mb 55f 55f
1:50am 1.3ft 4s 4s 7
mph
1013.3mb 55f 56f
12:50am 1.3ft 4s 4s 4 7 mph 1013.7mb 55f 56f
Tue 10/28 11:50pm 1.3ft 4s 4s 7
mph
1013.9mb 55f 56f
10:50pm 1.3ft 5s 3s 2
mph
1014.6mb 55f 57f
9:50pm 1.3ft 3s 3s 11
mph
1014.2mb 55f 57f
8:50pm 1.3ft 4s 3s 11 13 mph 1014.3mb 55f 57f
7:50pm 1.3ft 3s 3s 9 11 mph 1014.5mb 55f 57f
6:50pm 1.3ft 3s 3s 9
mph
1014.6mb 55f 57f
5:50pm 1.6ft 4s 3s 9
mph
1014.6mb 55f 58f
4:50pm 1.6ft 4s 4s 9 11 mph 1014.6mb 55f 59f
3:50pm 2ft 4s 3s 11
mph
1014.7mb 55f 58f
2:50pm 1.6ft 3s 3s 13 16 mph 1014.9mb 55f 57f
1:50pm 1.3ft 3s 3s 16 18 mph 1015.8mb 55f 56f
12:50pm 1.3ft 3s 3s 13 16 mph 1016.6mb 54f 55f
11:50am 1ft 3s 3s 13 16 mph 1017.8mb 54f 54f
10:50am 0.7ft  -  3s 13 16 mph 1018.4mb 54f 54f
9:50am 0.7ft  -  3s 11 13 mph 1018.8mb 54f 53f
8:50am 0.7ft  -  4s 9 11 mph 1019mb 54f 53f
7:50am 0.7ft  -  4s 7
mph
1018.7mb 54f 52f
6:50am 0.7ft  -  4s 2 4 mph 1018.3mb 54f 52f
5:50am 0.7ft  -  4s 4
mph
1018.4mb 54f 52f
4:50am 0.7ft  -  4s 2
mph
1017.8mb 54f 52f
3:50am 0.7ft  -  4s 7 9 mph 1017.7mb 54f 51f
2:50am 0.7ft  -  3s 2 4 mph 1017.7mb 54f 52f
1:50am 0.7ft  -  3s 4
mph
1017.6mb 54f 53f
12:50am 1ft 2s 3s 7
mph
1016.9mb 54f 53f
Mon 10/27 11:50pm 1ft 3s 3s 9 11 mph 1017.1mb 54f 53f
10:50pm 1ft 3s 3s 9 11 mph 1016.5mb 54f 54f
9:50pm 1.3ft 3s 3s 13 16 mph 1016mb 54f 55f
8:50pm 1.3ft 3s 3s 9 11 mph 1015.6mb 54f 55f
7:50pm 1.6ft 3s 3s 13 16 mph 1014.5mb 54f 56f
6:50pm 2.5ft 3s 3s 16 20 mph 1013.3mb 54f 57f
5:50pm 2.5ft 4s 3s 16 20 mph 1012.9mb 55f 58f
4:50pm 2ft 3s 3s 9 11 mph 1012.3mb 55f 58f
3:50pm 2ft 3s 3s 16 20 mph 1011.5mb 55f 58f